createdAt,value
2019-05-03T00:00:58.053Z,27.57
2019-05-03T00:03:27.392Z,27.03
2019-05-03T00:06:01.761Z,26.10
2019-05-03T00:08:33.238Z,25.77
2019-05-03T00:11:02.578Z,26.83
2019-05-03T00:13:32.513Z,30.20
2019-05-03T00:16:03.668Z,31.47
2019-05-03T00:18:32.954Z,33.58
2019-05-03T00:21:02.235Z,31.93
2019-05-03T00:23:32.386Z,33.40
2019-05-03T00:26:02.938Z,32.63
2019-05-03T00:28:33.184Z,34.80
2019-05-03T00:31:02.713Z,33.90
2019-05-03T00:33:32.334Z,33.03
2019-05-03T00:36:09.308Z,36.88
2019-05-03T00:38:38.594Z,33.60
2019-05-03T00:41:07.873Z,34.73
2019-05-03T00:43:37.169Z,31.57
2019-05-03T00:46:06.511Z,33.07
2019-05-03T00:48:36.113Z,31.53
2019-05-03T00:51:05.389Z,33.73
2019-05-03T00:53:34.929Z,32.27
2019-05-03T00:56:04.337Z,31.00
2019-05-03T00:58:35.265Z,31.80
2019-05-03T01:01:04.877Z,30.40
2019-05-03T01:03:34.166Z,31.13
2019-05-03T01:06:03.453Z,29.77
2019-05-03T01:08:32.804Z,30.00
2019-05-03T01:11:02.258Z,30.60
2019-05-03T01:13:32.112Z,28.85
2019-05-03T01:16:06.223Z,31.70
2019-05-03T01:18:35.818Z,30.20
2019-05-03T01:21:05.269Z,30.60
2019-05-03T01:23:34.553Z,30.10
2019-05-03T01:26:03.898Z,33.07
2019-05-03T01:28:34.161Z,30.83
2019-05-03T01:31:03.437Z,29.20
2019-05-03T01:33:32.713Z,31.90
2019-05-03T01:36:03.278Z,32.80
2019-05-03T01:38:32.563Z,31.27
2019-05-03T01:41:01.938Z,29.87
2019-05-03T01:43:31.908Z,30.83
2019-05-03T01:46:02.688Z,28.20
2019-05-03T01:48:41.643Z,27.77
2019-05-03T01:51:21.973Z,30.10
2019-05-03T01:53:52.371Z,29.00
2019-05-03T01:56:22.278Z,29.83
2019-05-03T01:58:52.405Z,27.93
2019-05-03T02:01:26.680Z,27.27
2019-05-03T02:03:57.840Z,24.17
2019-05-03T02:06:27.454Z,24.80
2019-05-03T02:08:57.063Z,24.87
2019-05-03T02:11:26.357Z,24.05
2019-05-03T02:13:55.641Z,25.00
2019-05-03T02:16:25.007Z,26.70
2019-05-03T02:18:54.278Z,26.03
2019-05-03T02:21:23.873Z,23.50
2019-05-03T02:23:53.157Z,26.47
2019-05-03T02:26:22.777Z,25.33
2019-05-03T02:28:52.749Z,26.20
2019-05-03T02:31:23.213Z,25.60
2019-05-03T02:33:53.494Z,26.07
2019-05-03T02:36:23.429Z,23.15
2019-05-03T02:38:53.711Z,23.83
2019-05-03T02:41:23.154Z,24.35
2019-05-03T02:43:56.042Z,26.30
2019-05-03T02:46:38.741Z,25.97
2019-05-03T02:49:15.263Z,27.00
2019-05-03T02:51:45.944Z,24.13
2019-05-03T02:54:15.732Z,26.67
2019-05-03T02:56:46.140Z,28.60
2019-05-03T02:59:16.064Z,27.53
2019-05-03T03:01:46.600Z,32.17
2019-05-03T03:04:16.902Z,34.67
2019-05-03T03:06:47.542Z,29.73
2019-05-03T03:09:18.724Z,30.37
2019-05-03T03:11:50.857Z,29.30
2019-05-03T03:14:22.303Z,29.70
2019-05-03T03:16:55.957Z,29.07
2019-05-03T03:19:27.663Z,28.70
2019-05-03T03:22:00.276Z,30.50
2019-05-03T03:24:31.449Z,34.07
2019-05-03T03:27:05.367Z,33.60
2019-05-03T03:29:36.030Z,32.10
2019-05-03T03:32:17.675Z,33.90
2019-05-03T03:35:02.723Z,30.60
2019-05-03T03:37:27.693Z,33.67
2019-05-03T03:39:57.044Z,34.67
2019-05-03T03:42:27.907Z,32.60
2019-05-03T03:44:57.734Z,29.77
2019-05-03T03:47:30.158Z,30.60
2019-05-03T03:50:01.978Z,30.40
2019-05-03T03:52:35.873Z,29.35
2019-05-03T03:55:06.405Z,28.65
2019-05-03T03:57:36.672Z,32.50
2019-05-03T04:00:07.695Z,30.32
2019-05-03T04:02:38.946Z,28.57
2019-05-03T04:05:08.844Z,25.85
2019-05-03T04:07:39.205Z,28.02
2019-05-03T04:10:09.539Z,28.35
2019-05-03T04:12:40.331Z,28.32
2019-05-03T04:15:20.618Z,25.52
2019-05-03T04:17:51.825Z,28.92
2019-05-03T04:20:26.015Z,28.50
2019-05-03T04:22:56.094Z,26.85
2019-05-03T04:25:28.074Z,27.60
2019-05-03T04:27:57.551Z,28.12
2019-05-03T04:30:26.830Z,25.50
2019-05-03T04:32:56.606Z,25.40
2019-05-03T04:35:26.839Z,27.35
2019-05-03T04:37:56.365Z,25.75
2019-05-03T04:40:26.199Z,25.45
2019-05-03T04:42:57.145Z,23.85
2019-05-03T04:45:26.733Z,25.68
2019-05-03T04:47:56.464Z,25.70
2019-05-03T04:50:26.760Z,25.65
2019-05-03T04:52:56.659Z,25.88
2019-05-03T04:55:26.855Z,28.45
2019-05-03T04:57:56.483Z,25.82
2019-05-03T05:00:26.121Z,27.10
2019-05-03T05:02:55.544Z,27.47
2019-05-03T05:05:26.180Z,29.72
2019-05-03T05:07:56.854Z,24.90
2019-05-03T05:10:26.507Z,27.17
2019-05-03T05:12:56.218Z,27.13
2019-05-03T05:15:26.530Z,27.48
2019-05-03T05:18:05.709Z,26.05
2019-05-03T05:20:42.653Z,24.05
2019-05-03T05:23:12.112Z,24.82
2019-05-03T05:25:45.975Z,26.80
2019-05-03T05:28:35.499Z,25.50
2019-05-03T05:31:05.155Z,27.52
2019-05-03T05:33:35.504Z,26.87
2019-05-03T05:36:05.081Z,29.90
2019-05-03T05:38:34.749Z,30.67
2019-05-03T05:41:05.296Z,31.12
2019-05-03T05:43:35.729Z,28.07
2019-05-03T05:46:05.376Z,14.55
2019-05-03T05:48:36.904Z,14.98
2019-05-03T05:51:06.194Z,11.95
2019-05-03T05:53:35.966Z,10.20
2019-05-03T05:56:10.040Z,10.50
2019-05-03T05:58:41.278Z,11.33
2019-05-03T06:01:12.219Z,10.20
2019-05-03T06:03:44.869Z,10.18
2019-05-03T06:06:16.144Z,8.73
2019-05-03T06:08:56.310Z,7.70
2019-05-03T06:11:34.611Z,7.97
2019-05-03T06:14:05.824Z,6.55
2019-05-03T06:16:36.929Z,6.03
2019-05-03T06:19:07.853Z,6.30
2019-05-03T06:21:47.990Z,8.50
2019-05-03T06:24:24.996Z,6.10
2019-05-03T06:27:15.299Z,6.65
2019-05-03T06:29:46.077Z,6.50
2019-05-03T06:32:25.672Z,5.80
2019-05-03T06:34:54.958Z,5.83
2019-05-03T06:37:29.062Z,4.40
2019-05-03T06:39:58.563Z,4.30
2019-05-03T06:42:28.173Z,4.70
2019-05-03T06:44:59.701Z,4.67
2019-05-03T06:47:28.722Z,4.67
2019-05-03T06:49:58.178Z,3.83
2019-05-03T06:52:29.265Z,3.00
2019-05-03T06:55:00.434Z,4.80
2019-05-03T06:57:30.046Z,3.27
2019-05-03T07:00:05.210Z,3.80
2019-05-03T07:02:39.838Z,3.90
2019-05-03T07:05:15.285Z,2.87
2019-05-03T07:07:58.297Z,2.80
2019-05-03T07:10:32.361Z,2.70
2019-05-03T07:13:04.987Z,2.90
2019-05-03T07:15:35.149Z,3.27
2019-05-03T07:18:05.741Z,2.70
2019-05-03T07:20:49.609Z,2.70
2019-05-03T07:23:18.886Z,3.30
2019-05-03T07:25:48.472Z,2.67
2019-05-03T07:28:17.725Z,3.30
2019-05-03T07:30:47.012Z,2.90
2019-05-03T07:33:30.149Z,2.37
2019-05-03T07:35:59.429Z,2.37
2019-05-03T07:38:28.707Z,2.30
2019-05-03T07:40:58.053Z,1.73
2019-05-03T07:43:27.328Z,2.30
2019-05-03T07:45:56.605Z,3.10
2019-05-03T07:48:27.214Z,2.27
2019-05-03T07:50:56.498Z,1.90
2019-05-03T07:53:26.010Z,2.63
2019-05-03T07:56:15.572Z,2.40
2019-05-03T07:58:59.333Z,1.60
2019-05-03T08:01:19.831Z,3.00
2019-05-03T08:03:49.237Z,3.23
2019-05-03T08:06:18.519Z,4.20
2019-05-03T08:08:47.798Z,3.57
2019-05-03T08:11:17.309Z,1.80
2019-05-03T08:13:46.841Z,2.93
2019-05-03T08:16:16.177Z,2.07
2019-05-03T08:21:37.715Z,2.70
2019-05-03T08:24:04.994Z,1.77
2019-05-03T08:26:34.997Z,1.90
2019-05-03T08:29:15.679Z,2.10
2019-05-03T08:31:43.041Z,2.60
2019-05-03T08:34:25.597Z,2.40
2019-05-03T08:37:05.230Z,3.17
2019-05-03T08:39:35.587Z,3.20
2019-05-03T08:42:10.233Z,2.87
2019-05-03T08:44:39.507Z,3.27
2019-05-03T08:47:08.785Z,3.20
2019-05-03T08:49:38.065Z,2.80
2019-05-03T08:52:07.341Z,3.27
2019-05-03T08:54:36.894Z,3.30
2019-05-03T08:57:06.511Z,3.53
2019-05-03T08:59:35.953Z,3.93
2019-05-03T09:02:14.079Z,2.73
2019-05-03T09:04:39.477Z,3.70
2019-05-03T09:07:08.557Z,3.23
2019-05-03T09:09:39.762Z,3.53
2019-05-03T09:12:09.050Z,3.20
2019-05-03T09:14:42.753Z,3.20
2019-05-03T09:17:09.541Z,2.93
2019-05-03T09:19:38.829Z,3.47
2019-05-03T09:22:08.093Z,3.37
2019-05-03T09:24:37.369Z,3.30
2019-05-03T09:27:06.643Z,3.07
2019-05-03T09:29:43.205Z,2.67
2019-05-03T09:32:07.294Z,2.90
2019-05-03T09:34:36.578Z,2.43
2019-05-03T09:37:05.853Z,2.50
2019-05-03T09:39:35.619Z,2.40
2019-05-03T09:42:05.410Z,3.17
2019-05-03T09:44:35.110Z,2.77
2019-05-03T09:47:05.688Z,2.47
2019-05-03T09:49:36.225Z,2.90
2019-05-03T09:52:08.349Z,3.00
2019-05-03T09:54:38.198Z,1.80
2019-05-03T09:57:07.485Z,1.80
2019-05-03T09:59:37.054Z,2.40
2019-05-03T10:02:06.478Z,2.03
2019-05-03T10:04:36.622Z,2.80
2019-05-03T10:07:07.525Z,2.43
2019-05-03T10:09:37.119Z,2.53
2019-05-03T10:12:08.129Z,2.50
2019-05-03T10:14:37.770Z,2.37
2019-05-03T10:17:20.765Z,3.30
2019-05-03T10:19:50.050Z,2.60
2019-05-03T10:22:22.389Z,2.73
2019-05-03T10:24:51.966Z,2.37
2019-05-03T10:27:21.574Z,2.27
2019-05-03T10:29:51.921Z,2.70
2019-05-03T10:32:39.230Z,3.10
2019-05-03T10:35:15.904Z,1.87
2019-05-03T10:37:45.407Z,2.47
2019-05-03T10:40:17.869Z,2.83
2019-05-03T10:42:47.328Z,2.10
2019-05-03T10:45:16.586Z,2.43
2019-05-03T10:47:45.865Z,2.50
2019-05-03T10:50:15.681Z,2.23
2019-05-03T10:52:49.457Z,2.27
2019-05-03T10:55:18.744Z,2.53
2019-05-03T10:57:49.661Z,2.67
2019-05-03T11:00:42.406Z,2.63
2019-05-03T11:02:59.365Z,2.70
2019-05-03T11:05:28.660Z,2.73
2019-05-03T11:07:57.997Z,2.40
2019-05-03T11:10:27.617Z,3.30
2019-05-03T11:12:56.884Z,2.83
2019-05-03T11:15:26.417Z,3.50
2019-05-03T11:17:56.029Z,2.63
2019-05-03T11:20:36.084Z,2.60
2019-05-03T11:23:06.673Z,2.70
2019-05-03T11:25:36.785Z,2.73
2019-05-03T11:28:20.673Z,2.93
2019-05-03T11:30:56.460Z,3.40
2019-05-03T11:33:25.501Z,2.80
2019-05-03T11:35:56.412Z,3.07
2019-05-03T11:38:39.520Z,2.80
2019-05-03T11:41:08.797Z,3.43
2019-05-03T11:43:38.072Z,3.60
2019-05-03T11:46:07.723Z,3.13
2019-05-03T11:48:36.993Z,3.33
2019-05-03T11:51:06.266Z,3.50
2019-05-03T11:53:35.749Z,4.13
2019-05-03T11:56:05.596Z,3.83
2019-05-03T11:58:35.248Z,3.00
2019-05-03T12:01:14.927Z,3.03
2019-05-03T12:03:38.838Z,2.63
2019-05-03T12:06:09.189Z,2.80
2019-05-03T12:08:38.778Z,2.70
2019-05-03T12:11:08.385Z,2.50
2019-05-03T12:13:37.993Z,2.40
2019-05-03T12:16:16.959Z,2.80
2019-05-03T12:18:48.991Z,2.90
2019-05-03T12:21:11.394Z,3.00
2019-05-03T12:23:41.615Z,3.20
2019-05-03T12:26:13.676Z,3.20
2019-05-03T12:28:44.745Z,3.20
2019-05-03T12:31:29.659Z,2.53
2019-05-03T12:33:46.007Z,2.60
2019-05-03T12:36:15.729Z,2.53
2019-05-03T12:38:45.358Z,3.03
2019-05-03T12:41:15.653Z,3.30
2019-05-03T12:43:44.939Z,2.73
2019-05-03T12:46:16.659Z,3.00
2019-05-03T12:48:45.613Z,3.67
2019-05-03T12:51:15.432Z,3.67
2019-05-03T12:53:45.450Z,2.90
2019-05-03T12:56:22.556Z,3.20
2019-05-03T12:58:56.953Z,4.00
2019-05-03T13:01:45.818Z,3.87
2019-05-03T13:04:24.827Z,4.53
2019-05-03T13:06:55.710Z,4.47
2019-05-03T13:09:25.301Z,3.43
2019-05-03T13:11:59.127Z,3.40
2019-05-03T13:14:27.911Z,3.50
2019-05-03T13:16:57.191Z,3.53
2019-05-03T13:19:27.553Z,3.47
2019-05-03T13:21:56.805Z,3.30
2019-05-03T13:24:26.172Z,3.53
2019-05-03T13:26:55.440Z,3.80
2019-05-03T13:29:25.622Z,3.07
2019-05-03T13:32:01.639Z,3.03
2019-05-03T13:34:26.078Z,3.47
2019-05-03T13:36:55.792Z,4.30
2019-05-03T13:39:26.479Z,3.50
2019-05-03T13:41:56.293Z,3.70
2019-05-03T13:44:25.641Z,3.83
2019-05-03T13:46:55.330Z,4.90
2019-05-03T13:49:26.493Z,4.80
2019-05-03T13:51:56.298Z,3.87
2019-05-03T13:54:25.669Z,3.23
2019-05-03T13:56:55.263Z,3.30
2019-05-03T13:59:25.021Z,3.60
2019-05-03T14:01:54.690Z,3.73
2019-05-03T14:04:24.057Z,4.40
2019-05-03T14:06:55.120Z,3.80
2019-05-03T14:09:25.170Z,4.30
2019-05-03T14:11:55.339Z,3.97
2019-05-03T14:14:25.827Z,3.73
2019-05-03T14:16:55.368Z,4.30
2019-05-03T14:19:26.266Z,4.00
2019-05-03T14:22:05.298Z,4.10
2019-05-03T14:24:35.172Z,4.37
2019-05-03T14:27:05.540Z,5.00
2019-05-03T14:29:35.168Z,4.50
2019-05-03T14:32:05.287Z,4.37
2019-05-03T14:34:35.928Z,4.50
2019-05-03T14:37:05.443Z,3.40
2019-05-03T14:39:34.713Z,4.47
2019-05-03T14:42:04.782Z,4.20
2019-05-03T14:44:35.759Z,4.10
2019-05-03T14:47:05.763Z,3.77
2019-05-03T14:49:36.025Z,4.20
2019-05-03T14:52:05.619Z,4.57
2019-05-03T14:54:38.021Z,4.20
2019-05-03T14:57:09.005Z,4.60
2019-05-03T14:59:55.918Z,4.53
2019-05-03T15:02:40.934Z,4.60
2019-05-03T15:05:01.782Z,4.43
2019-05-03T15:07:31.439Z,4.77
2019-05-03T15:10:00.722Z,4.83
2019-05-03T15:12:29.994Z,4.87
2019-05-03T15:14:59.283Z,4.17
2019-05-03T15:17:28.558Z,5.00
2019-05-03T15:19:57.837Z,5.10
2019-05-03T15:22:27.100Z,4.60
2019-05-03T15:24:56.377Z,4.60
2019-05-03T15:27:25.650Z,5.03
2019-05-03T15:29:55.547Z,5.90
2019-05-03T15:32:25.058Z,4.53
2019-05-03T15:34:55.339Z,5.27
2019-05-03T15:37:25.563Z,5.07
2019-05-03T15:39:55.233Z,4.47
2019-05-03T15:42:25.580Z,4.63
2019-05-03T15:45:14.640Z,10.17
2019-05-03T15:47:57.964Z,4.93
2019-05-03T15:50:27.256Z,4.40
2019-05-03T15:52:56.554Z,6.80
2019-05-03T15:55:25.871Z,9.10
2019-05-03T15:57:55.310Z,5.63
2019-05-03T16:00:24.772Z,6.00
2019-05-03T16:02:54.721Z,4.77
2019-05-03T16:05:25.390Z,9.47
2019-05-03T16:07:56.065Z,4.90
2019-05-03T16:10:25.646Z,5.00
2019-05-03T16:12:54.949Z,5.00
2019-05-03T16:15:24.753Z,4.80
2019-05-03T16:17:54.729Z,5.00
2019-05-03T16:20:25.115Z,5.10
2019-05-03T16:22:54.935Z,4.97
2019-05-03T16:25:25.282Z,4.60
2019-05-03T16:27:59.779Z,5.53
2019-05-03T16:30:30.703Z,4.60
2019-05-03T16:33:00.326Z,4.10
2019-05-03T16:35:29.654Z,5.10
2019-05-03T16:37:59.533Z,4.30
2019-05-03T16:40:28.822Z,4.13
2019-05-03T16:42:58.108Z,4.83
2019-05-03T16:45:27.748Z,5.60
2019-05-03T16:47:57.053Z,4.40
2019-05-03T16:50:27.897Z,5.40
2019-05-03T16:52:57.157Z,4.90
2019-05-03T16:55:26.448Z,5.60
2019-05-03T16:57:55.723Z,4.77
2019-05-03T17:00:25.461Z,5.00
2019-05-03T17:02:55.189Z,5.73
2019-05-03T17:05:42.436Z,6.20
2019-05-03T17:08:16.129Z,4.83
2019-05-03T17:10:57.076Z,5.20
2019-05-03T17:13:26.726Z,6.20
2019-05-03T17:15:56.096Z,5.10
2019-05-03T17:18:25.466Z,5.10
2019-05-03T17:20:54.864Z,5.27
2019-05-03T17:23:24.643Z,4.90
2019-05-03T17:25:54.022Z,5.80
2019-05-03T17:28:24.776Z,6.07
2019-05-03T17:30:55.462Z,5.67
2019-05-03T17:33:25.365Z,5.67
2019-05-03T17:35:54.962Z,5.50
2019-05-03T17:38:24.298Z,4.63
2019-05-03T17:40:55.574Z,4.97
2019-05-03T17:43:29.500Z,5.20
2019-05-03T17:46:00.464Z,6.03
2019-05-03T17:48:31.156Z,6.23
2019-05-03T17:51:00.469Z,6.60
2019-05-03T17:53:37.099Z,5.53
2019-05-03T17:56:17.920Z,5.07
2019-05-03T17:58:51.821Z,5.93
2019-05-03T18:01:39.442Z,6.57
2019-05-03T18:04:15.942Z,5.80
2019-05-03T18:06:47.156Z,7.83
2019-05-03T18:09:18.120Z,5.90
2019-05-03T18:11:52.010Z,5.10
2019-05-03T18:14:22.375Z,5.33
2019-05-03T18:16:51.641Z,5.70
2019-05-03T18:19:20.937Z,5.30
2019-05-03T18:21:50.208Z,7.60
2019-05-03T18:24:19.498Z,5.47
2019-05-03T18:26:48.765Z,5.60
2019-05-03T18:29:18.333Z,8.67
2019-05-03T18:31:47.609Z,9.50
2019-05-03T18:34:20.877Z,7.90
2019-05-03T18:36:48.214Z,9.33
2019-05-03T18:39:17.501Z,8.43
2019-05-03T18:41:46.772Z,7.33
2019-05-03T18:44:26.654Z,6.83
2019-05-03T18:46:57.562Z,6.70
2019-05-03T18:49:26.846Z,6.03
2019-05-03T18:51:56.202Z,5.73
2019-05-03T18:54:25.485Z,6.10
2019-05-03T18:56:55.776Z,7.03
2019-05-03T18:59:25.197Z,5.60
2019-05-03T19:01:55.225Z,6.43
2019-05-03T19:04:34.725Z,6.83
2019-05-03T19:07:04.253Z,8.70
2019-05-03T19:09:45.197Z,8.07
2019-05-03T19:12:18.777Z,6.73
2019-05-03T19:14:48.342Z,6.97
2019-05-03T19:17:31.200Z,8.40
2019-05-03T19:20:01.257Z,7.47
2019-05-03T19:22:30.941Z,9.10
2019-05-03T19:25:00.237Z,6.93
2019-05-03T19:27:29.508Z,8.50
2019-05-03T19:29:58.789Z,8.27
2019-05-03T19:32:28.496Z,8.37
2019-05-03T19:34:57.824Z,8.83
2019-05-03T19:37:27.428Z,9.93
2019-05-03T19:39:56.710Z,7.87
2019-05-03T19:42:27.398Z,7.70
2019-05-03T19:44:56.881Z,6.30
2019-05-03T19:47:26.150Z,7.30
2019-05-03T19:49:55.769Z,7.17
2019-05-03T19:52:26.721Z,7.50
2019-05-03T19:54:56.008Z,7.83
2019-05-03T19:57:26.909Z,7.40
2019-05-03T19:59:56.993Z,7.80
2019-05-03T20:02:45.402Z,8.90
2019-05-03T20:05:22.709Z,7.07
2019-05-03T20:07:59.268Z,6.87
2019-05-03T20:10:29.901Z,7.33
2019-05-03T20:12:59.401Z,6.60
2019-05-03T20:15:28.677Z,7.80
2019-05-03T20:18:00.308Z,7.77
2019-05-03T20:20:28.909Z,7.77
2019-05-03T20:22:59.081Z,7.77
2019-05-03T20:25:28.464Z,7.70
2019-05-03T20:27:57.739Z,8.47
2019-05-03T20:30:27.040Z,9.50
2019-05-03T20:32:56.311Z,10.60
2019-05-03T20:35:25.580Z,9.30
2019-05-03T20:37:55.445Z,9.53
2019-05-03T20:40:25.572Z,8.83
2019-05-03T20:43:02.485Z,8.77
2019-05-03T20:45:35.438Z,9.10
2019-05-03T20:48:06.684Z,10.30
2019-05-03T20:50:35.959Z,8.65
2019-05-03T20:53:05.503Z,8.97
2019-05-03T20:55:35.058Z,10.37
2019-05-03T20:58:06.468Z,10.30
2019-05-03T21:00:35.544Z,10.03
2019-05-03T21:03:05.012Z,8.20
2019-05-03T21:05:37.233Z,9.80
2019-05-03T21:08:05.769Z,10.10
2019-05-03T21:10:35.089Z,9.00
2019-05-03T21:13:05.479Z,9.97
2019-05-03T21:15:45.674Z,9.30
2019-05-03T21:18:19.315Z,10.00
2019-05-03T21:21:05.004Z,10.03
2019-05-03T21:23:35.920Z,9.70
2019-05-03T21:26:13.267Z,11.93
2019-05-03T21:28:41.969Z,11.60
2019-05-03T21:31:11.244Z,11.70
2019-05-03T21:33:40.533Z,12.13
2019-05-03T21:36:09.815Z,11.63
2019-05-03T21:38:40.963Z,11.50
2019-05-03T21:41:10.360Z,11.77
2019-05-03T21:43:39.646Z,12.00
2019-05-03T21:46:15.036Z,12.20
2019-05-03T21:48:48.785Z,12.17
2019-05-03T21:51:19.132Z,12.97
2019-05-03T21:53:48.417Z,14.33
2019-05-03T21:56:17.925Z,13.50
2019-05-03T21:58:47.487Z,14.30
2019-05-03T22:01:17.227Z,13.90
2019-05-03T22:03:46.581Z,14.77
2019-05-03T22:06:17.155Z,16.75
2019-05-03T22:08:46.737Z,14.67
2019-05-03T22:11:16.018Z,16.52
2019-05-03T22:13:46.947Z,16.10
2019-05-03T22:16:26.987Z,17.87
2019-05-03T22:18:56.272Z,18.07
2019-05-03T22:21:29.905Z,18.00
2019-05-03T22:24:04.472Z,17.00
2019-05-03T22:26:51.551Z,16.95
2019-05-03T22:29:20.908Z,17.83
2019-05-03T22:31:50.190Z,18.20
2019-05-03T22:34:20.454Z,18.80
2019-05-03T22:36:49.734Z,20.75
2019-05-03T22:39:19.017Z,19.48
2019-05-03T22:41:48.293Z,19.60
2019-05-03T22:44:17.775Z,21.37
2019-05-03T22:46:47.264Z,19.17
2019-05-03T22:49:16.577Z,20.30
2019-05-03T22:51:45.853Z,21.83
2019-05-03T22:54:15.473Z,21.85
2019-05-03T22:56:45.780Z,22.07
2019-05-03T22:59:15.147Z,22.87
2019-05-03T23:01:45.830Z,22.45
2019-05-03T23:04:15.289Z,25.08
2019-05-03T23:06:47.106Z,22.93
2019-05-03T23:09:15.980Z,23.80
2019-05-03T23:11:45.414Z,26.68
2019-05-03T23:14:15.773Z,25.17
2019-05-03T23:16:45.160Z,21.37
2019-05-03T23:19:14.889Z,17.65
2019-05-03T23:21:49.198Z,14.85
2019-05-03T23:24:18.778Z,14.93
2019-05-03T23:26:48.297Z,15.65
2019-05-03T23:29:17.577Z,16.20
2019-05-03T23:31:47.094Z,17.85
2019-05-03T23:34:16.373Z,15.70
2019-05-03T23:36:46.625Z,15.83
2019-05-03T23:39:15.906Z,16.55
2019-05-03T23:41:45.413Z,14.75
2019-05-03T23:44:15.175Z,16.75
2019-05-03T23:46:49.721Z,14.43
2019-05-03T23:49:18.993Z,16.60
2019-05-03T23:51:49.917Z,17.75
2019-05-03T23:54:19.269Z,17.60
2019-05-03T23:56:48.862Z,16.25
2019-05-03T23:59:18.367Z,18.15
